Time;durP1;ratioP1;P1;durP2;ratioP2;P2;SDS_P1;SDS_P2;PMS_P1;PMS_P2;Temp;Humidity;BMP_temperature;BMP_pressure;BME280_temperature;BME280_humidity;BME280_pressure;Samples;Min_cycle;Max_cycle;Signal;HPM_P1;HPM_P2
2023/09/27 00:01:08;;;;;;;20.60;18.38;;;15.30;99.90;;;;;;4929166;28;20059;-88
2023/09/27 00:03:33;;;;;;;23.60;18.75;;;15.30;99.90;;;;;;4941897;29;20411;-87
2023/09/27 00:05:59;;;;;;;25.80;19.63;;;15.40;99.90;;;;;;4933403;29;20588;-88
2023/09/27 00:08:24;;;;;;;23.92;18.73;;;15.50;99.90;;;;;;4934827;29;20027;-88
2023/09/27 00:10:50;;;;;;;21.45;19.20;;;15.60;99.90;;;;;;4936342;28;20028;-88
2023/09/27 00:13:16;;;;;;;21.92;18.45;;;15.60;99.90;;;;;;4934004;29;20031;-88
2023/09/27 00:15:42;;;;;;;25.48;19.20;;;15.70;99.90;;;;;;4933603;29;20114;-87
2023/09/27 00:18:09;;;;;;;21.17;17.70;;;15.70;99.90;;;;;;4932589;29;20079;-88
2023/09/27 00:20:35;;;;;;;22.88;18.55;;;15.80;99.90;;;;;;4931753;29;20027;-87
2023/09/27 00:23:01;;;;;;;22.20;19.83;;;15.80;99.90;;;;;;4941160;29;20035;-87
2023/09/27 00:25:26;;;;;;;22.25;19.67;;;15.90;99.90;;;;;;4931217;29;20079;-88
2023/09/27 00:27:52;;;;;;;22.00;18.13;;;15.90;99.90;;;;;;4948614;28;20031;-88
2023/09/27 00:30:17;;;;;;;22.90;18.45;;;15.90;99.90;;;;;;4933871;29;20027;-88
2023/09/27 00:32:47;;;;;;;22.65;17.63;;;16.00;99.90;;;;;;4935031;29;20032;-87
2023/09/27 00:35:19;;;;;;;21.17;17.30;;;16.00;99.90;;;;;;4946590;29;20489;-87
2023/09/27 00:37:49;;;;;;;18.65;16.65;;;16.00;99.90;;;;;;4930528;29;20114;-88
2023/09/27 00:40:18;;;;;;;20.85;17.63;;;16.10;99.90;;;;;;4946703;29;20028;-88
2023/09/27 00:42:43;;;;;;;22.08;17.50;;;16.00;99.90;;;;;;4942895;29;20040;-87
2023/09/27 00:45:10;;;;;;;19.77;17.08;;;16.10;99.90;;;;;;4931364;29;20038;-88
2023/09/27 00:47:37;;;;;;;17.02;15.23;;;16.00;99.90;;;;;;4937159;29;20132;-88
2023/09/27 00:50:03;;;;;;;18.70;15.50;;;16.00;99.90;;;;;;4938116;29;20377;-88
2023/09/27 00:52:30;;;;;;;20.58;15.65;;;16.00;99.90;;;;;;4953433;28;20030;-88
2023/09/27 00:54:56;;;;;;;20.33;16.30;;;15.90;99.90;;;;;;4949781;29;20055;-88
2023/09/27 00:57:22;;;;;;;20.23;14.93;;;15.80;99.90;;;;;;4951677;28;20040;-88
2023/09/27 00:59:48;;;;;;;17.73;15.77;;;15.80;99.90;;;;;;4949160;28;20695;-87
2023/09/27 01:02:14;;;;;;;22.08;16.73;;;15.70;99.90;;;;;;4924876;29;20086;-88
2023/09/27 01:04:40;;;;;;;20.05;16.45;;;15.70;99.90;;;;;;4936898;29;20067;-87
2023/09/27 01:07:07;;;;;;;17.95;16.05;;;15.60;99.90;;;;;;4942578;29;20031;-88
2023/09/27 01:09:33;;;;;;;18.42;16.25;;;15.60;99.90;;;;;;4949846;29;20054;-88
2023/09/27 01:11:58;;;;;;;21.98;17.67;;;15.50;99.90;;;;;;4928624;29;20079;-88
2023/09/27 01:14:24;;;;;;;26.40;17.58;;;15.40;99.90;;;;;;4936663;29;20051;-88
2023/09/27 01:16:50;;;;;;;22.08;16.98;;;15.40;99.90;;;;;;4936128;29;20122;-88
2023/09/27 01:19:15;;;;;;;19.73;16.33;;;15.40;99.90;;;;;;4936304;29;20032;-88
2023/09/27 01:21:41;;;;;;;17.83;15.90;;;15.30;99.90;;;;;;4936687;29;20036;-88
2023/09/27 01:24:06;;;;;;;23.73;17.40;;;15.20;99.90;;;;;;4946883;29;20024;-87
2023/09/27 01:26:35;;;;;;;18.75;15.75;;;15.10;99.90;;;;;;4945801;28;20028;-87
2023/09/27 01:29:00;;;;;;;21.23;16.13;;;15.10;99.90;;;;;;4948696;29;20031;-87
2023/09/27 01:31:26;;;;;;;20.25;15.45;;;15.00;99.90;;;;;;4949283;29;20393;-88
2023/09/27 01:33:51;;;;;;;18.30;16.42;;;15.00;99.90;;;;;;4938619;29;20127;-87
2023/09/27 01:36:17;;;;;;;17.45;15.50;;;14.90;99.90;;;;;;4935910;29;20122;-86
2023/09/27 01:38:43;;;;;;;20.23;15.63;;;14.90;99.90;;;;;;4935729;29;20098;-87
2023/09/27 01:41:08;;;;;;;17.10;15.25;;;14.80;99.90;;;;;;4935684;29;20023;-87
2023/09/27 01:43:34;;;;;;;21.00;15.63;;;14.70;99.90;;;;;;4943808;28;20063;-87
2023/09/27 01:45:59;;;;;;;19.95;15.30;;;14.70;99.90;;;;;;4948641;29;20464;-87
2023/09/27 01:48:25;;;;;;;19.25;15.70;;;14.70;99.90;;;;;;4948278;29;20172;-87
2023/09/27 01:50:50;;;;;;;19.25;15.43;;;14.60;99.90;;;;;;4931569;29;20392;-87
2023/09/27 01:53:17;;;;;;;25.25;17.00;;;14.60;99.90;;;;;;4958957;28;20038;-87
2023/09/27 01:55:42;;;;;;;21.48;17.35;;;14.50;99.90;;;;;;4951288;29;20499;-87
2023/09/27 01:58:08;;;;;;;19.27;16.23;;;14.50;99.90;;;;;;4931218;29;20064;-87
2023/09/27 02:00:33;;;;;;;18.58;15.63;;;14.50;99.90;;;;;;4945004;28;20476;-87
2023/09/27 02:03:01;;;;;;;18.77;15.63;;;14.40;99.90;;;;;;4948197;28;20039;-88
2023/09/27 02:05:28;;;;;;;20.52;15.77;;;14.40;99.90;;;;;;4939461;29;20467;-88
2023/09/27 02:07:54;;;;;;;20.70;17.13;;;14.30;99.90;;;;;;4948269;29;20471;-87
2023/09/27 02:10:20;;;;;;;18.80;16.80;;;14.30;99.90;;;;;;4935348;29;20051;-88
2023/09/27 02:12:46;;;;;;;23.05;18.40;;;14.20;99.90;;;;;;4935441;29;20039;-88
2023/09/27 02:15:12;;;;;;;19.27;16.52;;;14.10;99.90;;;;;;4950587;28;20106;-87
2023/09/27 02:17:39;;;;;;;20.98;16.80;;;14.10;99.90;;;;;;4926862;29;20103;-87
2023/09/27 02:20:07;;;;;;;22.45;18.83;;;14.10;99.90;;;;;;4928163;29;20050;-88
2023/09/27 02:22:42;;;;;;;21.50;17.13;;;14.10;99.90;;;;;;4935789;29;20059;-87
2023/09/27 02:25:13;;;;;;;22.85;17.98;;;14.00;99.90;;;;;;4936006;29;20024;-87
2023/09/27 02:27:40;;;;;;;21.40;19.10;;;14.00;99.90;;;;;;4936538;29;20110;-87
2023/09/27 02:30:07;;;;;;;21.90;18.92;;;13.90;99.90;;;;;;4935054;29;20060;-87
2023/09/27 02:32:33;;;;;;;23.08;18.90;;;13.90;99.90;;;;;;4935468;29;20114;-87
2023/09/27 02:34:59;;;;;;;25.70;19.15;;;13.90;99.90;;;;;;4932401;28;20030;-87
2023/09/27 02:37:25;;;;;;;20.63;18.45;;;13.90;99.90;;;;;;4936312;29;20549;-87
2023/09/27 02:39:51;;;;;;;22.48;20.08;;;13.80;99.90;;;;;;4935274;29;20062;-88
2023/09/27 02:42:16;;;;;;;26.92;21.88;;;13.80;99.90;;;;;;4936329;29;20080;-87
2023/09/27 02:44:42;;;;;;;26.55;18.65;;;13.80;99.90;;;;;;4934856;28;20032;-87
2023/09/27 02:47:08;;;;;;;24.92;18.73;;;13.80;99.90;;;;;;4929595;29;20035;-87
2023/09/27 02:49:37;;;;;;;21.00;18.73;;;13.70;99.90;;;;;;4935176;29;20023;-87
2023/09/27 02:52:03;;;;;;;23.95;18.58;;;13.70;99.90;;;;;;4934453;29;21026;-87
2023/09/27 02:54:28;;;;;;;22.70;19.52;;;13.60;99.90;;;;;;4947384;29;20054;-88
2023/09/27 02:56:54;;;;;;;28.77;22.95;;;13.50;99.90;;;;;;4942310;28;20500;-88
2023/09/27 02:59:20;;;;;;;25.45;19.95;;;13.60;99.90;;;;;;4952496;28;20038;-88
2023/09/27 03:01:46;;;;;;;26.83;20.27;;;13.50;99.90;;;;;;4931584;29;20032;-88
2023/09/27 03:04:15;;;;;;;26.58;20.95;;;13.50;99.90;;;;;;4946824;28;20030;-87
2023/09/27 03:06:43;;;;;;;25.17;22.08;;;13.50;99.90;;;;;;4943395;28;20063;-88
2023/09/27 03:09:12;;;;;;;24.25;20.80;;;13.50;99.90;;;;;;4951101;28;20024;-88
2023/09/27 03:11:39;;;;;;;22.20;19.42;;;13.40;99.90;;;;;;4935606;29;20027;-88
2023/09/27 03:14:05;;;;;;;26.60;21.30;;;13.40;99.90;;;;;;4936813;29;20027;-88
2023/09/27 03:16:30;;;;;;;25.00;21.63;;;13.40;99.90;;;;;;4932217;29;20108;-87
2023/09/27 03:18:58;;;;;;;22.60;19.60;;;13.30;99.90;;;;;;4948355;29;20036;-87
2023/09/27 03:21:25;;;;;;;20.60;17.95;;;13.40;99.90;;;;;;4945193;29;20051;-87
2023/09/27 03:23:53;;;;;;;18.70;16.63;;;13.30;99.90;;;;;;4933336;29;20504;-87
2023/09/27 03:26:19;;;;;;;23.73;18.33;;;13.20;99.90;;;;;;4936561;29;20028;-87
2023/09/27 03:28:46;;;;;;;23.77;18.73;;;13.20;99.90;;;;;;4946516;29;20062;-87
2023/09/27 03:31:11;;;;;;;22.98;18.88;;;13.10;99.90;;;;;;4934012;29;20024;-87
2023/09/27 03:33:37;;;;;;;22.92;20.33;;;13.10;99.90;;;;;;4931488;28;20060;-87
2023/09/27 03:36:03;;;;;;;23.10;20.05;;;13.10;99.90;;;;;;4922540;29;20080;-87
2023/09/27 03:38:29;;;;;;;26.63;21.67;;;13.10;99.90;;;;;;4936483;28;20401;-87
2023/09/27 03:40:55;;;;;;;21.30;18.65;;;13.00;99.90;;;;;;4934033;29;20027;-87
2023/09/27 03:43:20;;;;;;;25.42;21.10;;;13.00;99.90;;;;;;4932015;29;20043;-87
2023/09/27 03:45:46;;;;;;;24.15;20.52;;;13.00;99.90;;;;;;4932841;28;20476;-87
2023/09/27 03:48:11;;;;;;;21.67;19.33;;;13.00;99.90;;;;;;4933918;29;20036;-87
2023/09/27 03:50:37;;;;;;;27.92;22.90;;;13.00;99.90;;;;;;4946813;29;20028;-88
2023/09/27 03:53:04;;;;;;;24.15;20.02;;;12.90;99.90;;;;;;4918819;29;20032;-88
2023/09/27 03:55:29;;;;;;;26.15;21.63;;;12.90;99.90;;;;;;4933483;29;20028;-88
2023/09/27 03:57:55;;;;;;;25.33;21.42;;;12.90;99.90;;;;;;4933430;29;20389;-88
2023/09/27 04:00:21;;;;;;;25.15;21.60;;;12.90;99.90;;;;;;4932985;29;20043;-87
2023/09/27 04:02:47;;;;;;;23.75;20.92;;;12.90;99.90;;;;;;4939743;29;20039;-87
2023/09/27 04:05:14;;;;;;;26.85;23.55;;;12.90;99.90;;;;;;4931048;28;20518;-87
2023/09/27 04:07:40;;;;;;;31.08;24.88;;;12.90;99.90;;;;;;4933229;29;20036;-87
2023/09/27 04:10:09;;;;;;;23.90;20.63;;;12.90;99.90;;;;;;4933208;28;20070;-87
2023/09/27 04:12:35;;;;;;;22.73;16.95;;;12.80;99.90;;;;;;4949401;28;20118;-87
2023/09/27 04:15:00;;;;;;;17.27;15.15;;;12.80;99.90;;;;;;4933707;29;20047;-87
2023/09/27 04:17:27;;;;;;;19.65;16.85;;;12.70;99.90;;;;;;4950336;28;20385;-87
2023/09/27 04:19:55;;;;;;;18.83;14.88;;;12.60;99.90;;;;;;4921504;29;20028;-87
2023/09/27 04:22:20;;;;;;;22.38;19.25;;;12.50;99.90;;;;;;4935721;29;20047;-87
2023/09/27 04:24:46;;;;;;;25.70;21.05;;;12.50;99.90;;;;;;4936520;29;20497;-87
2023/09/27 04:27:12;;;;;;;27.13;22.33;;;12.50;99.90;;;;;;4948109;29;20502;-87
2023/09/27 04:29:37;;;;;;;27.33;22.48;;;12.60;99.90;;;;;;4943395;29;20028;-87
2023/09/27 04:32:04;;;;;;;31.48;24.95;;;12.60;99.90;;;;;;4933659;29;20082;-86
2023/09/27 04:34:29;;;;;;;28.70;23.42;;;12.60;99.90;;;;;;4937505;29;20024;-87
2023/09/27 04:36:55;;;;;;;27.08;22.38;;;12.60;99.90;;;;;;4932744;29;20036;-86
2023/09/27 04:39:20;;;;;;;27.20;22.73;;;12.60;99.90;;;;;;4921487;29;20059;-86
2023/09/27 04:41:46;;;;;;;29.33;23.10;;;12.60;99.90;;;;;;4950755;28;20547;-86
2023/09/27 04:44:13;;;;;;;18.48;15.80;;;12.60;99.90;;;;;;4937180;29;20027;-86
2023/09/27 04:46:39;;;;;;;25.15;22.20;;;12.60;99.90;;;;;;4936825;29;20032;-87
2023/09/27 04:49:04;;;;;;;28.42;23.48;;;12.60;99.90;;;;;;4927515;29;20043;-86
2023/09/27 04:51:30;;;;;;;28.80;25.67;;;12.60;99.90;;;;;;4933584;29;20038;-86
2023/09/27 04:54:00;;;;;;;27.45;23.50;;;12.60;99.90;;;;;;4947744;29;20560;-87
2023/09/27 04:56:26;;;;;;;30.65;23.42;;;12.60;99.90;;;;;;4952353;29;20036;-86
2023/09/27 04:58:52;;;;;;;28.80;23.23;;;12.60;99.90;;;;;;4935911;29;22234;-87
2023/09/27 05:01:18;;;;;;;27.45;23.38;;;12.60;99.90;;;;;;4936995;29;20038;-87
2023/09/27 05:03:43;;;;;;;25.80;21.52;;;12.60;99.90;;;;;;4951894;28;20047;-86
2023/09/27 05:06:09;;;;;;;31.45;23.88;;;12.50;99.90;;;;;;4949479;29;20063;-87
2023/09/27 05:08:34;;;;;;;30.00;22.65;;;12.50;99.90;;;;;;4947426;28;20071;-87
2023/09/27 05:11:00;;;;;;;27.40;22.38;;;12.50;99.90;;;;;;4930809;29;20039;-87
2023/09/27 05:13:26;;;;;;;29.00;24.42;;;12.50;99.90;;;;;;4940309;29;20019;-87
2023/09/27 05:15:52;;;;;;;34.13;25.83;;;12.50;99.90;;;;;;4936048;29;20032;-86
2023/09/27 05:18:18;;;;;;;31.05;26.73;;;12.50;99.90;;;;;;4937205;29;20066;-87
2023/09/27 05:20:44;;;;;;;31.60;26.90;;;12.60;99.90;;;;;;4935876;29;20106;-87
2023/09/27 05:23:10;;;;;;;33.40;26.52;;;12.60;99.90;;;;;;4931305;29;20039;-87
2023/09/27 05:25:35;;;;;;;33.70;28.38;;;12.60;99.90;;;;;;4947186;28;20024;-87
2023/09/27 05:28:01;;;;;;;36.05;29.63;;;12.60;99.90;;;;;;4945869;29;20499;-87
2023/09/27 05:30:27;;;;;;;38.47;29.08;;;12.60;99.90;;;;;;4952288;28;20103;-87
2023/09/27 05:32:53;;;;;;;33.60;28.00;;;12.60;99.90;;;;;;4942429;28;20030;-86
2023/09/27 05:35:18;;;;;;;34.67;29.27;;;12.70;99.90;;;;;;4947938;28;20036;-86
2023/09/27 05:37:44;;;;;;;39.95;31.55;;;12.70;99.90;;;;;;4927049;29;20492;-85
2023/09/27 05:40:10;;;;;;;33.88;28.55;;;12.70;99.90;;;;;;4946823;28;20114;-87
2023/09/27 05:42:37;;;;;;;37.17;30.45;;;12.70;99.90;;;;;;4948201;28;20526;-87
2023/09/27 05:45:04;;;;;;;37.42;29.10;;;12.70;99.90;;;;;;4950336;29;20087;-87
2023/09/27 05:47:30;;;;;;;34.95;28.20;;;12.70;99.90;;;;;;4935367;29;20518;-88
2023/09/27 05:49:55;;;;;;;36.53;29.15;;;12.70;99.90;;;;;;4933803;29;20035;-88
2023/09/27 05:52:22;;;;;;;37.10;29.52;;;12.80;99.90;;;;;;4946436;28;20118;-87
2023/09/27 05:54:47;;;;;;;35.55;28.33;;;12.80;99.90;;;;;;4949701;28;20032;-88
2023/09/27 05:57:14;;;;;;;36.72;27.77;;;12.80;99.90;;;;;;4931993;29;20071;-88
2023/09/27 05:59:44;;;;;;;33.90;27.40;;;12.80;99.90;;;;;;4934361;29;20020;-87
2023/09/27 06:02:16;;;;;;;38.72;29.08;;;12.90;99.90;;;;;;4934614;29;20063;-88
2023/09/27 06:04:45;;;;;;;36.30;30.38;;;12.90;99.90;;;;;;4932205;29;20082;-87
2023/09/27 06:07:13;;;;;;;34.90;28.20;;;13.00;99.90;;;;;;4931944;29;20062;-87
2023/09/27 06:09:40;;;;;;;35.17;26.85;;;13.00;99.90;;;;;;4936970;29;20016;-87
2023/09/27 06:12:06;;;;;;;36.08;28.27;;;13.10;99.90;;;;;;4949363;28;20028;-88
2023/09/27 06:14:31;;;;;;;31.33;26.30;;;13.10;99.90;;;;;;4924211;29;20020;-88
2023/09/27 06:16:58;;;;;;;31.05;26.33;;;13.20;99.90;;;;;;4933331;29;20420;-88
2023/09/27 06:19:23;;;;;;;34.47;26.65;;;13.20;99.90;;;;;;4950760;29;20051;-88
2023/09/27 06:21:49;;;;;;;37.92;27.90;;;13.20;99.90;;;;;;4947121;28;20024;-88
2023/09/27 06:24:14;;;;;;;36.22;28.92;;;13.30;99.90;;;;;;4948046;28;20039;-89
2023/09/27 06:26:41;;;;;;;32.50;26.90;;;13.30;99.90;;;;;;4951249;28;20031;-88
2023/09/27 06:29:08;;;;;;;34.13;27.83;;;13.30;99.90;;;;;;4927537;29;20020;-89
2023/09/27 06:31:34;;;;;;;32.67;27.45;;;13.30;99.90;;;;;;4950669;28;20104;-88
2023/09/27 06:34:00;;;;;;;33.20;27.48;;;13.40;99.90;;;;;;4949918;29;20028;-87
2023/09/27 06:36:29;;;;;;;31.88;27.85;;;13.40;99.90;;;;;;4954751;28;20483;-88
2023/09/27 06:38:55;;;;;;;38.97;29.08;;;13.50;99.90;;;;;;4938417;28;20039;-88
2023/09/27 06:41:21;;;;;;;36.40;29.08;;;13.60;99.90;;;;;;4941537;28;20032;-87
2023/09/27 06:43:47;;;;;;;40.05;29.77;;;13.70;99.90;;;;;;4932918;29;20366;-88
2023/09/27 06:46:15;;;;;;;34.47;28.35;;;13.70;99.90;;;;;;4949016;29;20055;-87
2023/09/27 06:48:41;;;;;;;34.45;29.35;;;13.80;99.90;;;;;;4943198;29;20162;-88
2023/09/27 06:51:07;;;;;;;31.92;27.63;;;13.90;99.90;;;;;;4938445;28;20032;-87
2023/09/27 06:53:33;;;;;;;35.92;32.05;;;14.00;99.90;;;;;;4935056;29;20035;-88
2023/09/27 06:55:59;;;;;;;35.88;31.20;;;14.20;99.90;;;;;;4949137;28;20032;-88
2023/09/27 06:58:25;;;;;;;33.28;29.10;;;14.30;99.90;;;;;;4935006;29;20114;-87
2023/09/27 07:00:52;;;;;;;34.88;29.33;;;14.50;99.90;;;;;;4949869;29;20059;-88
2023/09/27 07:03:19;;;;;;;32.30;27.95;;;14.60;99.90;;;;;;4943651;28;20083;-89
2023/09/27 07:05:46;;;;;;;31.60;28.13;;;14.80;99.90;;;;;;4930962;29;20020;-89
2023/09/27 07:08:13;;;;;;;33.45;28.85;;;14.90;99.90;;;;;;4934176;29;20404;-89
2023/09/27 07:10:38;;;;;;;31.70;27.00;;;15.00;99.90;;;;;;4931164;29;20104;-86
2023/09/27 07:13:04;;;;;;;31.75;27.95;;;15.10;99.90;;;;;;4945810;29;20035;-89
2023/09/27 07:15:31;;;;;;;30.88;27.02;;;15.10;99.90;;;;;;4941013;28;20031;-88
2023/09/27 07:17:57;;;;;;;32.05;28.00;;;15.20;99.90;;;;;;4926354;29;20188;-88
2023/09/27 07:20:32;;;;;;;29.95;26.08;;;15.40;99.90;;;;;;4929986;29;20495;-88
2023/09/27 07:22:58;;;;;;;30.27;26.75;;;15.50;99.90;;;;;;4931613;29;20040;-88
2023/09/27 07:25:24;;;;;;;29.98;26.63;;;15.60;99.90;;;;;;4950209;28;20078;-88
2023/09/27 07:27:52;;;;;;;30.23;24.92;;;15.70;99.90;;;;;;4934293;29;20463;-88
2023/09/27 07:30:23;;;;;;;29.42;25.75;;;15.70;99.90;;;;;;4933843;29;20114;-88
2023/09/27 07:32:53;;;;;;;26.30;23.50;;;15.70;99.90;;;;;;4929194;29;20074;-88
2023/09/27 07:35:19;;;;;;;30.52;25.92;;;15.70;99.90;;;;;;4929015;29;20012;-88
2023/09/27 07:37:44;;;;;;;27.40;24.60;;;15.70;99.90;;;;;;4945983;28;20468;-87
2023/09/27 07:40:12;;;;;;;32.70;26.23;;;15.60;99.90;;;;;;4925558;29;20083;-88
2023/09/27 07:42:42;;;;;;;29.63;26.48;;;15.60;99.90;;;;;;4931949;29;20062;-88
2023/09/27 07:45:20;;;;;;;29.38;24.80;;;15.60;99.90;;;;;;4922395;29;20083;-90
2023/09/27 07:47:53;;;;;;;29.38;26.27;;;15.60;99.90;;;;;;4947929;28;20031;-88
2023/09/27 07:50:21;;;;;;;32.63;28.45;;;15.60;99.90;;;;;;4931782;29;20495;-88
2023/09/27 07:52:47;;;;;;;28.67;25.65;;;15.60;99.90;;;;;;4921146;29;20091;-87
2023/09/27 07:55:14;;;;;;;28.40;25.40;;;15.70;99.90;;;;;;4925806;29;20048;-89
2023/09/27 07:57:43;;;;;;;32.28;28.85;;;15.70;99.90;;;;;;4946614;28;20034;-88
2023/09/27 08:00:10;;;;;;;26.85;24.02;;;15.70;99.90;;;;;;4952407;29;20025;-89
2023/09/27 08:02:36;;;;;;;31.25;26.25;;;15.70;99.90;;;;;;4934992;28;20040;-87
2023/09/27 08:05:09;;;;;;;30.42;26.42;;;15.80;99.90;;;;;;4952536;28;20195;-88
2023/09/27 08:07:36;;;;;;;30.77;27.45;;;15.80;99.90;;;;;;4935980;29;20034;-88
2023/09/27 08:10:02;;;;;;;30.60;25.05;;;15.90;99.90;;;;;;4936094;29;20433;-87
2023/09/27 08:12:31;;;;;;;31.10;26.30;;;16.00;99.90;;;;;;4950923;29;20028;-88
2023/09/27 08:14:59;;;;;;;27.75;24.67;;;16.10;99.90;;;;;;4936884;29;20118;-87
2023/09/27 08:17:25;;;;;;;27.80;24.83;;;16.20;99.90;;;;;;4949214;28;20122;-88
2023/09/27 08:19:51;;;;;;;28.10;25.17;;;16.30;99.90;;;;;;4931433;29;20164;-88
2023/09/27 08:22:17;;;;;;;24.75;22.27;;;16.40;99.90;;;;;;4937273;29;20033;-87
2023/09/27 08:24:43;;;;;;;29.77;23.02;;;16.50;99.90;;;;;;4938651;29;20114;-87
2023/09/27 08:27:08;;;;;;;23.48;21.00;;;16.50;99.90;;;;;;4935057;29;20053;-88
2023/09/27 08:29:35;;;;;;;29.02;24.30;;;16.60;99.90;;;;;;4933124;29;20020;-88
2023/09/27 08:32:08;;;;;;;26.98;22.02;;;16.70;99.90;;;;;;4945938;28;20088;-89
2023/09/27 08:34:34;;;;;;;25.88;21.67;;;16.80;99.90;;;;;;4935055;29;20127;-88
2023/09/27 08:37:00;;;;;;;25.70;22.65;;;16.90;99.90;;;;;;4931563;28;21768;-88
2023/09/27 08:39:26;;;;;;;22.10;19.80;;;17.00;99.90;;;;;;4931691;29;20035;-88
2023/09/27 08:42:02;;;;;;;21.30;19.08;;;17.10;99.90;;;;;;4936671;29;20043;-89
2023/09/27 08:44:30;;;;;;;22.20;19.90;;;17.20;99.90;;;;;;4929689;29;20123;-87
2023/09/27 08:46:57;;;;;;;23.83;20.55;;;17.40;99.90;;;;;;4929553;29;20028;-88
2023/09/27 08:49:24;;;;;;;24.40;20.50;;;17.60;99.90;;;;;;4932328;29;20115;-87
2023/09/27 08:51:50;;;;;;;23.83;19.10;;;17.80;99.90;;;;;;4937519;28;20026;-87
2023/09/27 08:54:21;;;;;;;23.42;19.27;;;17.80;99.90;;;;;;4950345;28;20034;-89
2023/09/27 08:56:48;;;;;;;23.00;19.20;;;17.90;99.90;;;;;;4935963;29;20039;-87
2023/09/27 08:59:15;;;;;;;23.17;20.50;;;18.00;99.90;;;;;;4940253;28;20119;-87
2023/09/27 09:01:43;;;;;;;22.17;19.80;;;18.20;99.90;;;;;;4938182;29;20061;-87
2023/09/27 09:04:09;;;;;;;22.00;18.25;;;18.30;99.90;;;;;;4944625;29;20400;-86
2023/09/27 09:06:35;;;;;;;18.42;16.48;;;18.50;99.90;;;;;;4943245;28;20707;-86
2023/09/27 09:09:10;;;;;;;19.08;17.05;;;18.70;99.90;;;;;;4934009;28;20040;-87
2023/09/27 09:11:54;;;;;;;20.85;18.63;;;18.80;99.90;;;;;;4934567;28;20053;-87
2023/09/27 09:14:42;;;;;;;20.30;17.77;;;19.00;99.90;;;;;;4939147;29;20027;-88
2023/09/27 09:17:10;;;;;;;19.45;17.15;;;19.30;99.90;;;;;;4930409;29;20048;-89
2023/09/27 09:19:38;;;;;;;16.98;14.82;;;19.60;99.90;;;;;;4938337;29;20042;-89
2023/09/27 09:22:08;;;;;;;14.88;12.77;;;19.70;99.90;;;;;;4937842;28;20483;-89
2023/09/27 09:24:41;;;;;;;16.60;12.70;;;20.00;99.90;;;;;;4946766;28;20028;-88
2023/09/27 09:27:12;;;;;;;15.50;11.73;;;20.20;99.90;;;;;;4949362;28;20027;-89
2023/09/27 09:29:52;;;;;;;12.85;10.90;;;20.30;99.90;;;;;;4942069;29;20143;-88
2023/09/27 09:32:24;;;;;;;13.68;11.00;;;20.50;99.90;;;;;;4930916;29;20031;-88
2023/09/27 09:34:52;;;;;;;15.65;10.98;;;20.70;99.90;;;;;;4936814;29;20027;-88
2023/09/27 09:37:29;;;;;;;13.20;10.00;;;20.80;99.90;;;;;;4941270;28;20044;-89
2023/09/27 09:40:15;;;;;;;14.60;11.20;;;20.90;99.90;;;;;;4953632;28;20501;-89
2023/09/27 09:42:42;;;;;;;12.45;9.48;;;21.00;99.90;;;;;;4930536;29;20428;-89
2023/09/27 09:45:12;;;;;;;12.88;10.18;;;21.10;99.90;;;;;;4950241;29;20106;-88
2023/09/27 09:47:46;;;;;;;11.75;9.50;;;21.20;99.90;;;;;;4928500;29;20031;-89
2023/09/27 09:50:19;;;;;;;11.60;10.32;;;21.30;99.90;;;;;;4953572;28;20036;-88
2023/09/27 09:52:59;;;;;;;13.75;9.80;;;21.40;99.90;;;;;;4948014;28;20050;-88
2023/09/27 09:55:29;;;;;;;10.10;9.10;;;21.50;99.90;;;;;;4931426;29;20552;-88
2023/09/27 09:58:10;;;;;;;11.25;7.53;;;21.40;99.90;;;;;;4929401;28;20059;-87
2023/09/27 10:00:42;;;;;;;9.32;7.45;;;21.50;99.90;;;;;;4941692;28;20024;-86
2023/09/27 10:03:09;;;;;;;13.80;7.82;;;21.60;99.90;;;;;;4928273;29;20051;-88
2023/09/27 10:05:39;;;;;;;10.18;6.75;;;21.70;99.90;;;;;;4931910;28;20453;-88
2023/09/27 10:08:08;;;;;;;10.73;7.07;;;21.80;99.90;;;;;;4929247;29;20028;-87
2023/09/27 10:10:35;;;;;;;7.80;6.47;;;21.80;99.90;;;;;;4932239;29;20078;-87
2023/09/27 10:13:04;;;;;;;8.82;7.20;;;21.80;99.90;;;;;;4931720;29;20444;-86
2023/09/27 10:15:33;;;;;;;7.55;5.25;;;21.90;99.90;;;;;;4949429;28;20492;-88
2023/09/27 10:18:21;;;;;;;8.27;5.43;;;22.10;99.90;;;;;;4933017;29;20085;-88
2023/09/27 10:21:05;;;;;;;10.05;5.63;;;22.40;99.90;;;;;;4932897;29;20039;-88
2023/09/27 10:23:37;;;;;;;8.07;5.13;;;22.40;99.90;;;;;;4947399;28;20070;-89
2023/09/27 10:26:20;;;;;;;8.93;4.57;;;22.40;99.90;;;;;;4932124;29;20035;-87
2023/09/27 10:29:01;;;;;;;7.22;4.20;;;22.40;99.90;;;;;;4929566;29;20448;-88
2023/09/27 10:31:28;;;;;;;5.38;4.00;;;22.50;99.90;;;;;;4931469;29;20031;-87
2023/09/27 10:33:53;;;;;;;4.63;3.78;;;22.60;99.90;;;;;;4947292;29;20032;-88
2023/09/27 10:36:19;;;;;;;7.20;4.13;;;22.70;99.90;;;;;;4922633;29;20039;-88
2023/09/27 10:38:47;;;;;;;5.75;3.33;;;22.80;99.90;;;;;;4928589;29;20038;-87
2023/09/27 10:41:43;;;;;;;4.82;2.70;;;22.90;99.90;;;;;;4928647;29;20027;-88
2023/09/27 10:44:09;;;;;;;5.10;2.00;;;22.90;99.90;;;;;;4934320;29;20095;-88
2023/09/27 10:46:42;;;;;;;3.97;2.05;;;23.00;99.90;;;;;;4950155;28;20040;-88
2023/09/27 10:49:08;;;;;;;4.53;1.92;;;22.90;99.90;;;;;;4933303;29;20036;-88
2023/09/27 10:51:34;;;;;;;5.03;2.60;;;22.90;99.90;;;;;;4930701;28;20028;-88
2023/09/27 10:54:00;;;;;;;6.35;2.45;;;22.90;99.90;;;;;;4946078;28;20040;-88
2023/09/27 10:56:25;;;;;;;6.95;2.90;;;22.90;99.90;;;;;;4930350;29;20034;-87
2023/09/27 10:58:51;;;;;;;4.97;2.17;;;22.90;99.90;;;;;;4938085;28;20074;-87
2023/09/27 11:01:23;;;;;;;5.82;2.40;;;22.90;99.90;;;;;;4941001;28;20040;-89
2023/09/27 11:03:59;;;;;;;6.32;2.08;;;23.10;99.90;;;;;;4929868;29;20039;-87
2023/09/27 11:06:25;;;;;;;4.40;2.50;;;23.10;99.90;;;;;;4945258;28;20039;-87
2023/09/27 11:08:51;;;;;;;4.70;2.28;;;23.00;99.90;;;;;;4930804;29;20034;-87
2023/09/27 11:11:16;;;;;;;5.15;2.28;;;22.90;99.90;;;;;;4944142;28;20484;-86
2023/09/27 11:13:45;;;;;;;6.15;3.28;;;22.90;99.90;;;;;;4929013;29;20055;-87
2023/09/27 11:16:15;;;;;;;5.07;2.28;;;22.80;99.90;;;;;;4931329;29;20028;-87
2023/09/27 11:18:45;;;;;;;5.47;2.80;;;22.80;99.90;;;;;;4929090;29;20031;-88
2023/09/27 11:21:15;;;;;;;5.47;2.63;;;22.80;99.90;;;;;;4944886;29;20028;-87
2023/09/27 11:23:53;;;;;;;5.63;2.40;;;22.90;99.90;;;;;;4944143;28;20079;-87
2023/09/27 11:26:22;;;;;;;4.32;2.70;;;22.90;99.90;;;;;;4930155;29;20091;-88
2023/09/27 11:28:58;;;;;;;5.78;2.08;;;22.90;99.90;;;;;;4930890;29;20039;-86
2023/09/27 11:31:25;;;;;;;8.75;2.30;;;23.00;99.90;;;;;;4940253;29;20468;-87
2023/09/27 11:33:51;;;;;;;6.88;3.90;;;23.10;99.90;;;;;;4925893;29;20055;-87
2023/09/27 11:36:19;;;;;;;7.10;2.72;;;23.00;99.90;;;;;;4923541;29;20059;-88
2023/09/27 11:38:51;;;;;;;5.63;2.63;;;22.90;99.90;;;;;;4948082;28;20048;-88
2023/09/27 11:41:19;;;;;;;8.43;3.13;;;22.90;99.90;;;;;;4927784;29;20028;-88
2023/09/27 11:43:45;;;;;;;5.18;2.60;;;23.00;99.90;;;;;;4931799;29;20507;-88
2023/09/27 11:46:12;;;;;;;7.07;3.33;;;23.00;99.90;;;;;;4933130;28;20032;-86
2023/09/27 11:48:39;;;;;;;5.93;3.08;;;23.20;99.90;;;;;;4949819;28;20036;-87
2023/09/27 11:51:05;;;;;;;6.60;3.42;;;23.30;99.90;;;;;;4948860;29;20396;-87
2023/09/27 11:53:30;;;;;;;7.15;3.45;;;23.40;99.90;;;;;;4946398;28;20028;-86
2023/09/27 11:55:59;;;;;;;6.63;3.13;;;23.50;99.90;;;;;;4948246;29;20060;-87
2023/09/27 11:58:25;;;;;;;4.95;3.45;;;23.50;99.90;;;;;;4939756;28;20086;-87
2023/09/27 12:00:51;;;;;;;4.68;3.55;;;23.50;99.90;;;;;;4939678;29;20029;-86
2023/09/27 12:03:16;;;;;;;5.75;3.75;;;23.50;99.90;;;;;;4941113;29;20047;-87
2023/09/27 12:05:42;;;;;;;7.40;3.97;;;23.50;99.90;;;;;;4948362;29;20027;-87
2023/09/27 12:08:08;;;;;;;7.22;3.40;;;23.50;99.90;;;;;;4927764;29;20024;-87
2023/09/27 12:10:34;;;;;;;5.20;3.10;;;23.50;99.90;;;;;;4941769;28;20118;-87
2023/09/27 12:13:00;;;;;;;5.15;3.08;;;23.60;99.90;;;;;;4934132;29;20403;-87
2023/09/27 12:15:25;;;;;;;5.18;3.13;;;23.70;99.90;;;;;;4933813;29;20020;-88
2023/09/27 12:17:51;;;;;;;4.38;2.83;;;23.70;99.90;;;;;;4923852;29;20508;-87
2023/09/27 12:20:17;;;;;;;5.82;3.20;;;23.70;99.90;;;;;;4933760;29;20060;-87
2023/09/27 12:22:42;;;;;;;6.22;3.35;;;23.70;99.90;;;;;;4934096;28;20435;-87
2023/09/27 12:25:09;;;;;;;3.80;2.00;;;23.70;99.90;;;;;;4933647;29;20031;-87
2023/09/27 12:27:35;;;;;;;6.25;3.67;;;23.70;99.90;;;;;;4933450;29;20126;-87
2023/09/27 12:30:01;;;;;;;7.95;3.03;;;23.70;99.90;;;;;;4933390;29;20059;-87
2023/09/27 12:32:26;;;;;;;7.53;3.28;;;23.90;99.90;;;;;;4947150;28;20036;-87